Huvudsida
METAR-TAF:

METAR-TAF

Flygplatser :

Umeå Airport

Umeå, Sverige

latitud: 63-48N, longitud: 020-17E, höjd: 7 m

Aktuellt väderrapport

Denna rapport gjordes för 39 minuter sedan, klockan 09:20 UTC
Vind 5 kt från syd/sydväst
Temperatur 0°C
Fuktighet 100%
Tryck 1005 hPa
Sikt: 2500 m
lätt snö

METAR: ESNU 200920Z 20005KT 2500 -SN VV014 00/M00 Q1005 R14/75//33

Tid: 10:59 (09:59 UTC)

Väderprognos

Denna rapport gjordes för 1 timme och 29 minuter sedan, klockan 08:30 UTC
Prognos gäller från 20 kl. 09 UTC till 20 kl. 18 UTC
Vind 8 kt från syd
Sikt: 1400 m
på en höjd av 600 ft
snö
Temporärt
från 20 kl. 09 UTC till 20 kl. 10 UTC
Sikt: 5000 m
Brutna moln på en höjd av 3000 ft
lätt snö
Blir
från 20 kl. 10 UTC till 20 kl. 12 UTC
Vind 10 kt från väst
Sikt 10 km eller mer
Få moln på en höjd av 1500 ft

TAF: ESNU 200830Z 2009/2018 18008KT 1400 SN VV006 TEMPO 2009/2010 5000 -SN BKN030 BECMG 2010/2012 28010KT 9999 NSW FEW015

Aktuella väderrapporter och prognoser från 4000 flygplatser (METAR- och TAF-rapporter).

De tillgängliga stationerna syns som gula och röda prickar på kartan.

För musen över prickarna för att se namnen på stationerna.

Klicka sedan för att få väderrapporter och prognoser.

För att ändra kartan: Klicka på de gröna knapparna med ett svart kors på för att zooma in; den gröna knappen med ett streck på för att zooma ut; eller på de gröna pilarna för angränsande kartor.


METAR-TAF: